createdAt,value
2023-01-21T00:01:27.761Z,78.04
2023-01-21T00:03:49.467Z,78.33
2023-01-21T00:06:15.048Z,78.43
2023-01-21T00:08:36.765Z,78.01
2023-01-21T00:11:08.705Z,77.64
2023-01-21T00:13:30.333Z,78.12
2023-01-21T00:15:54.820Z,77.85
2023-01-21T00:18:16.547Z,78.13
2023-01-21T00:20:38.284Z,77.91
2023-01-21T00:22:59.937Z,78.38
2023-01-21T00:25:22.084Z,78.40
2023-01-21T00:27:43.739Z,78.26
2023-01-21T00:30:06.156Z,78.54
2023-01-21T00:32:28.007Z,78.86
2023-01-21T00:34:49.642Z,78.74
2023-01-21T00:37:11.629Z,79.17
2023-01-21T00:39:33.592Z,79.15
2023-01-21T00:41:55.202Z,78.80
2023-01-21T00:44:17.703Z,78.74
2023-01-21T00:46:39.331Z,79.11
2023-01-21T00:49:01.047Z,79.05
2023-01-21T00:51:23.656Z,79.33
2023-01-21T00:53:45.241Z,79.05
2023-01-21T00:56:13.230Z,79.12
2023-01-21T00:58:36.106Z,79.12
2023-01-21T01:01:05.090Z,79.15
2023-01-21T01:03:26.692Z,79.67
2023-01-21T01:05:48.232Z,79.92
2023-01-21T01:08:09.802Z,79.72
2023-01-21T01:10:31.412Z,79.96
2023-01-21T01:12:53.061Z,80.11
2023-01-21T01:15:14.626Z,79.80
2023-01-21T01:17:36.777Z,79.71
2023-01-21T01:19:58.350Z,80.03
2023-01-21T01:22:19.919Z,80.02
2023-01-21T01:24:41.592Z,79.59
2023-01-21T01:27:03.211Z,79.72
2023-01-21T01:29:25.002Z,79.88
2023-01-21T01:31:46.687Z,79.82
2023-01-21T01:34:08.285Z,79.66
2023-01-21T01:36:29.873Z,79.89
2023-01-21T01:38:53.634Z,79.89
2023-01-21T01:41:20.599Z,79.94
2023-01-21T01:44:17.484Z,79.55
2023-01-21T01:46:39.140Z,79.61
2023-01-21T01:49:18.921Z,79.44
2023-01-21T01:51:55.863Z,79.78
2023-01-21T01:54:28.529Z,79.87
2023-01-21T01:56:57.018Z,79.92
2023-01-21T01:59:19.796Z,80.03
2023-01-21T02:01:41.667Z,80.11
2023-01-21T02:04:10.363Z,80.20
2023-01-21T02:06:32.019Z,80.14
2023-01-21T02:08:55.207Z,80.17
2023-01-21T02:11:19.685Z,80.25
2023-01-21T02:13:48.801Z,80.64
2023-01-21T02:16:23.202Z,80.67
2023-01-21T02:19:36.859Z,80.33
2023-01-21T02:22:10.482Z,80.47
2023-01-21T02:25:08.969Z,80.65
2023-01-21T02:27:58.266Z,80.60
2023-01-21T02:30:54.079Z,80.58
2023-01-21T02:33:46.507Z,80.98
2023-01-21T02:36:31.494Z,80.84
2023-01-21T02:39:30.203Z,80.94
2023-01-21T02:42:11.517Z,80.68
2023-01-21T02:44:42.152Z,81.28
2023-01-21T02:47:45.731Z,81.06
2023-01-21T02:50:18.888Z,81.24
2023-01-21T02:52:40.603Z,81.27
2023-01-21T02:55:03.936Z,80.92
2023-01-21T02:57:47.590Z,81.11
2023-01-21T03:00:15.696Z,80.89
2023-01-21T03:02:43.294Z,80.85
2023-01-21T03:05:58.077Z,80.90
2023-01-21T03:08:30.419Z,81.29
2023-01-21T03:11:09.866Z,81.42
2023-01-21T03:14:17.319Z,81.26
2023-01-21T03:16:59.565Z,81.62
2023-01-21T03:19:30.159Z,81.45
2023-01-21T03:21:54.041Z,81.07
2023-01-21T03:24:16.263Z,81.35
2023-01-21T03:26:45.778Z,81.28
2023-01-21T03:29:16.630Z,81.53
2023-01-21T03:31:43.418Z,81.13
2023-01-21T03:34:11.531Z,81.29
2023-01-21T03:36:54.472Z,81.00
2023-01-21T03:39:25.957Z,81.05
2023-01-21T03:41:47.918Z,81.30
2023-01-21T03:44:09.580Z,81.10
2023-01-21T03:47:03.397Z,81.40
2023-01-21T03:49:34.037Z,81.69
2023-01-21T03:52:01.257Z,81.08
2023-01-21T03:54:23.585Z,81.14
2023-01-21T03:56:45.144Z,81.41
2023-01-21T03:59:06.927Z,81.74
2023-01-21T04:01:28.549Z,81.20
2023-01-21T04:03:50.136Z,81.34
2023-01-21T04:06:19.065Z,81.75
2023-01-21T04:08:40.865Z,81.59
2023-01-21T04:11:02.494Z,81.69
2023-01-21T04:13:24.186Z,81.30
2023-01-21T04:15:45.740Z,81.15
2023-01-21T04:18:07.353Z,81.47
2023-01-21T04:20:29.060Z,81.40
2023-01-21T04:22:50.647Z,81.63
2023-01-21T04:25:12.258Z,81.03
2023-01-21T04:27:33.925Z,81.24
2023-01-21T04:29:55.538Z,81.36
2023-01-21T04:32:17.167Z,81.52
2023-01-21T04:34:38.879Z,80.78
2023-01-21T04:37:00.576Z,81.10
2023-01-21T04:39:22.133Z,81.32
2023-01-21T04:41:45.069Z,81.06
2023-01-21T04:44:06.886Z,80.87
2023-01-21T04:46:28.588Z,81.15
2023-01-21T04:48:50.251Z,80.74
2023-01-21T04:51:12.035Z,81.30
2023-01-21T04:53:33.825Z,81.13
2023-01-21T04:55:55.485Z,80.96
2023-01-21T04:58:17.076Z,81.33
2023-01-21T05:00:38.646Z,80.61
2023-01-21T05:03:00.354Z,80.98
2023-01-21T05:05:22.192Z,80.85
2023-01-21T05:07:43.837Z,81.09
2023-01-21T05:10:05.916Z,80.82
2023-01-21T05:12:28.266Z,80.77
2023-01-21T05:14:54.590Z,80.95
2023-01-21T05:17:16.148Z,80.79
2023-01-21T05:19:37.781Z,80.91
2023-01-21T05:21:59.395Z,81.09
2023-01-21T05:24:21.095Z,80.88
2023-01-21T05:26:43.231Z,81.06
2023-01-21T05:29:04.895Z,80.69
2023-01-21T05:31:26.557Z,80.75
2023-01-21T05:33:48.332Z,80.81
2023-01-21T05:36:10.595Z,81.03
2023-01-21T05:38:32.316Z,80.99
2023-01-21T05:41:02.040Z,80.79
2023-01-21T05:43:23.912Z,80.78
2023-01-21T05:45:45.586Z,80.77
2023-01-21T05:48:07.222Z,80.84
2023-01-21T05:50:28.886Z,80.67
2023-01-21T05:52:50.617Z,80.81
2023-01-21T05:55:12.254Z,81.04
2023-01-21T08:20:08.776Z,85.96
2023-01-21T08:22:32.902Z,86.26
2023-01-21T08:24:56.278Z,86.82
2023-01-21T08:27:21.187Z,86.55
2023-01-21T08:30:05.418Z,86.67
2023-01-21T08:32:35.257Z,86.64
2023-01-21T08:35:24.099Z,87.32
2023-01-21T08:37:50.314Z,87.32
2023-01-21T08:40:14.433Z,87.82
2023-01-21T08:42:43.284Z,87.16
2023-01-21T08:45:36.151Z,87.39
2023-01-21T08:47:59.653Z,87.34
2023-01-21T08:50:23.032Z,87.74
2023-01-21T08:55:33.326Z,87.76
2023-01-21T08:57:58.627Z,87.42
2023-01-21T09:00:22.859Z,87.36
2023-01-21T09:02:47.139Z,87.52
2023-01-21T09:05:10.010Z,87.17
2023-01-21T09:07:34.321Z,87.41
2023-01-21T09:09:57.073Z,86.92
2023-01-21T09:12:19.722Z,87.18
2023-01-21T09:14:42.578Z,86.88
2023-01-21T09:17:04.689Z,87.16
2023-01-21T09:19:29.369Z,86.73
2023-01-21T09:21:56.098Z,87.19
2023-01-21T09:24:18.943Z,87.25
2023-01-21T09:26:45.431Z,86.77
2023-01-21T09:29:07.928Z,86.85
2023-01-21T09:31:32.284Z,86.56
2023-01-21T09:34:00.359Z,86.61
2023-01-21T09:36:27.978Z,86.16
2023-01-21T09:38:56.495Z,85.83
2023-01-21T09:41:48.709Z,85.30
2023-01-21T09:44:40.177Z,85.26
2023-01-21T09:47:23.005Z,85.12
2023-01-21T09:49:51.772Z,85.14
2023-01-21T09:52:31.670Z,85.43
2023-01-21T09:54:57.787Z,84.67
2023-01-21T09:57:47.490Z,84.59
2023-01-21T10:01:03.107Z,84.82
2023-01-21T10:03:36.866Z,84.50
2023-01-21T10:06:23.276Z,84.49
2023-01-21T10:08:54.316Z,84.11
2023-01-21T10:11:35.552Z,83.84
2023-01-21T10:14:27.520Z,82.91
2023-01-21T10:17:36.255Z,82.96
2023-01-21T10:20:17.138Z,82.05
2023-01-21T10:22:46.532Z,81.94
2023-01-21T10:25:32.580Z,81.42
2023-01-21T10:27:59.712Z,80.82
2023-01-21T10:30:41.901Z,80.56
2023-01-21T10:33:07.006Z,80.34
2023-01-21T10:35:58.100Z,79.99
2023-01-21T10:38:28.893Z,79.97
2023-01-21T10:41:15.074Z,79.49
2023-01-21T10:43:50.931Z,79.82
2023-01-21T10:46:24.654Z,79.58
2023-01-21T10:49:01.934Z,79.20
2023-01-21T10:51:39.400Z,79.47
2023-01-21T10:54:22.676Z,78.76
2023-01-21T10:57:13.531Z,78.44
2023-01-21T10:59:38.115Z,77.46
2023-01-21T11:02:08.901Z,77.59
2023-01-21T11:04:30.734Z,77.37
2023-01-21T11:07:08.685Z,77.41
2023-01-21T11:09:37.233Z,76.47
2023-01-21T11:12:00.932Z,76.50
2023-01-21T11:14:25.843Z,76.33
2023-01-21T11:16:50.349Z,75.75
2023-01-21T11:19:24.965Z,75.55
2023-01-21T11:22:13.878Z,75.10
2023-01-21T11:24:48.649Z,75.60
2023-01-21T11:27:32.776Z,74.81
2023-01-21T11:29:54.460Z,75.72
2023-01-21T11:32:27.770Z,75.40
2023-01-21T11:35:01.451Z,74.98
2023-01-21T11:37:26.871Z,75.27
2023-01-21T11:40:22.561Z,75.50
2023-01-21T11:42:50.979Z,75.38
2023-01-21T11:45:37.958Z,75.13
2023-01-21T11:48:01.307Z,75.67
2023-01-21T11:50:34.635Z,75.72
2023-01-21T11:53:15.095Z,75.69
2023-01-21T11:55:51.590Z,75.62
2023-01-21T11:58:24.909Z,75.81
2023-01-21T12:00:50.865Z,75.29
2023-01-21T12:03:20.275Z,74.72
2023-01-21T12:05:45.641Z,73.72
2023-01-21T12:08:07.945Z,73.52
2023-01-21T12:10:35.614Z,73.81
2023-01-21T12:13:24.739Z,73.97
2023-01-21T12:16:16.247Z,73.60
2023-01-21T12:19:05.074Z,73.35
2023-01-21T12:21:41.503Z,73.04
2023-01-21T12:24:42.999Z,72.87
2023-01-21T12:27:27.096Z,72.64
2023-01-21T12:30:43.869Z,72.15
2023-01-21T12:33:36.942Z,72.71
2023-01-21T12:36:08.934Z,73.01
2023-01-21T12:38:46.857Z,73.05
2023-01-21T12:41:21.014Z,72.93
2023-01-21T12:43:53.654Z,72.69
2023-01-21T12:46:34.981Z,72.85
2023-01-21T12:49:12.275Z,73.75
2023-01-21T12:51:45.913Z,73.70
2023-01-21T12:54:42.251Z,73.50
2023-01-21T12:57:19.354Z,73.68
2023-01-21T12:59:58.408Z,73.81
2023-01-21T13:02:40.791Z,73.69
2023-01-21T13:05:27.289Z,73.03
2023-01-21T13:08:05.874Z,72.95
2023-01-21T13:10:39.034Z,73.46
2023-01-21T13:13:16.341Z,73.37
2023-01-21T13:15:43.405Z,73.59
2023-01-21T13:18:16.720Z,73.06
2023-01-21T13:20:47.616Z,72.83
2023-01-21T13:23:51.427Z,72.56
2023-01-21T13:26:22.268Z,72.71
2023-01-21T13:29:17.018Z,72.36
2023-01-21T13:32:13.921Z,72.46
2023-01-21T13:35:01.393Z,72.29
2023-01-21T13:38:01.839Z,72.02
2023-01-21T13:40:51.744Z,71.77
2023-01-21T13:43:29.292Z,71.39
2023-01-21T13:46:14.372Z,71.44
2023-01-21T13:49:07.581Z,70.92
2023-01-21T13:52:00.267Z,71.08
2023-01-21T13:54:46.239Z,71.19
2023-01-21T13:57:26.481Z,70.85
2023-01-21T14:00:04.728Z,71.10
2023-01-21T14:02:47.888Z,71.75
2023-01-21T14:05:47.744Z,71.63
2023-01-21T14:08:20.883Z,71.11
2023-01-21T14:11:16.370Z,70.75
2023-01-21T14:14:08.082Z,71.07
2023-01-21T14:17:22.541Z,71.21
2023-01-21T14:20:09.341Z,71.30
2023-01-21T14:23:19.597Z,71.50
2023-01-21T14:26:12.650Z,72.03
2023-01-21T14:29:09.584Z,71.92
2023-01-21T14:31:41.348Z,71.99
2023-01-21T14:34:16.513Z,71.98
2023-01-21T14:37:02.943Z,72.40
2023-01-21T14:39:40.965Z,72.46
2023-01-21T14:42:10.666Z,72.22
2023-01-21T14:44:58.659Z,72.54
2023-01-21T14:47:39.885Z,72.50
2023-01-21T14:50:01.692Z,72.49
2023-01-21T14:52:43.235Z,72.22
2023-01-21T14:55:32.719Z,72.63
2023-01-21T14:57:56.917Z,72.34
2023-01-21T15:00:26.696Z,72.65
2023-01-21T15:03:09.003Z,72.10
2023-01-21T15:05:36.974Z,71.78
2023-01-21T15:08:04.502Z,72.00
2023-01-21T15:10:39.143Z,71.73
2023-01-21T15:13:07.457Z,71.60
2023-01-21T15:16:31.167Z,71.13
2023-01-21T15:19:08.355Z,71.51
2023-01-21T15:21:45.098Z,70.91
2023-01-21T15:24:19.048Z,70.48
2023-01-21T15:26:42.319Z,70.26
2023-01-21T15:29:36.636Z,70.39
2023-01-21T15:32:27.226Z,70.61
2023-01-21T15:34:57.523Z,70.39
2023-01-21T15:37:25.640Z,70.80
2023-01-21T15:45:53.610Z,71.23
2023-01-21T15:54:12.604Z,71.57
2023-01-21T16:21:07.977Z,73.17
2023-01-21T16:24:05.376Z,72.88
2023-01-21T16:26:35.699Z,73.26
2023-01-21T16:33:29.799Z,73.79
2023-01-21T16:58:56.092Z,74.99
2023-01-21T17:01:19.927Z,75.20
2023-01-21T17:03:43.138Z,74.85
2023-01-21T17:06:21.332Z,74.76
2023-01-21T17:08:53.399Z,75.05
2023-01-21T17:11:15.116Z,75.00
2023-01-21T17:13:43.075Z,75.04
2023-01-21T17:16:07.247Z,74.83
2023-01-21T17:18:38.887Z,75.26
2023-01-21T17:21:18.667Z,75.24
2023-01-21T17:23:55.889Z,74.76
2023-01-21T17:26:25.296Z,75.01
2023-01-21T17:28:57.457Z,74.69
2023-01-21T17:31:34.967Z,75.04
2023-01-21T17:34:17.364Z,74.83
2023-01-21T17:36:41.105Z,75.39
2023-01-21T17:39:06.113Z,75.33
2023-01-21T17:41:34.441Z,75.16
2023-01-21T17:43:56.784Z,74.82
2023-01-21T17:46:23.115Z,75.08
2023-01-21T17:48:46.374Z,75.12
2023-01-21T17:51:16.454Z,74.89
2023-01-21T17:53:46.270Z,75.16
2023-01-21T17:56:08.963Z,74.94
2023-01-21T17:58:51.453Z,74.73
2023-01-21T18:01:14.608Z,74.97
2023-01-21T18:03:36.259Z,75.19
2023-01-21T18:05:58.335Z,75.44
2023-01-21T18:08:20.168Z,75.27
2023-01-21T18:10:43.518Z,75.78
2023-01-21T18:13:05.382Z,75.66
2023-01-21T18:15:27.131Z,75.67
2023-01-21T18:17:56.124Z,75.53
2023-01-21T18:20:22.416Z,75.74
2023-01-21T18:22:44.421Z,75.94
2023-01-21T18:25:11.179Z,76.17
2023-01-21T18:27:32.918Z,75.66
2023-01-21T18:29:54.698Z,76.06
2023-01-21T18:32:17.815Z,75.63
2023-01-21T18:34:39.819Z,76.17
2023-01-21T18:37:02.449Z,76.08
2023-01-21T18:39:24.603Z,76.35
2023-01-21T18:41:46.641Z,75.76
2023-01-21T18:44:09.689Z,76.15
2023-01-21T18:46:31.566Z,76.22
2023-01-21T18:48:53.225Z,76.10
2023-01-21T18:51:15.066Z,76.44
2023-01-21T18:53:36.715Z,76.78
2023-01-21T18:55:59.121Z,76.49
2023-01-21T18:58:21.075Z,76.33
2023-01-21T19:00:42.836Z,77.15
2023-01-21T19:03:04.589Z,77.02
2023-01-21T19:05:34.071Z,77.70
2023-01-21T19:07:58.804Z,77.43
2023-01-21T19:10:20.847Z,77.56
2023-01-21T19:12:43.914Z,77.85
2023-01-21T19:15:08.616Z,77.61
2023-01-21T19:17:33.181Z,77.46
2023-01-21T19:19:55.941Z,77.79
2023-01-21T19:22:17.776Z,77.94
2023-01-21T19:24:39.718Z,77.65
2023-01-21T19:27:01.538Z,78.02
2023-01-21T19:29:26.748Z,77.92
2023-01-21T19:31:48.442Z,77.88
2023-01-21T19:34:10.472Z,78.19
2023-01-21T19:36:32.304Z,77.75
2023-01-21T19:38:56.905Z,78.17
2023-01-21T19:41:18.720Z,78.06
2023-01-21T19:43:41.231Z,78.17
2023-01-21T19:46:03.130Z,78.02
2023-01-21T19:48:28.216Z,78.63
2023-01-21T19:50:50.185Z,78.21
2023-01-21T19:53:17.718Z,78.36
2023-01-21T19:55:40.318Z,78.86
2023-01-21T19:58:10.985Z,78.89
2023-01-21T20:00:35.298Z,78.91
2023-01-21T20:02:58.898Z,79.20
2023-01-21T20:05:22.153Z,79.05
2023-01-21T20:07:48.885Z,79.56
2023-01-21T20:10:19.925Z,78.90
2023-01-21T20:12:43.949Z,79.06
2023-01-21T20:15:06.745Z,79.09
2023-01-21T20:17:34.655Z,79.33
2023-01-21T20:19:58.964Z,79.44
2023-01-21T20:22:20.605Z,79.47
2023-01-21T20:24:43.521Z,79.72
2023-01-21T20:27:07.778Z,79.54
2023-01-21T20:29:31.443Z,79.40
2023-01-21T20:31:54.342Z,79.61
2023-01-21T20:34:16.231Z,79.93
2023-01-21T20:36:38.773Z,79.74
2023-01-21T20:39:00.567Z,79.93
2023-01-21T20:41:24.250Z,79.96
2023-01-21T20:43:46.237Z,79.91
2023-01-21T20:46:17.708Z,80.45
2023-01-21T20:48:43.669Z,79.83
2023-01-21T20:51:05.992Z,80.48
2023-01-21T20:53:28.092Z,80.03
2023-01-21T20:55:52.217Z,80.29
2023-01-21T20:58:16.427Z,80.35
2023-01-21T21:00:38.657Z,80.50
2023-01-21T21:03:04.591Z,80.99
2023-01-21T21:05:28.500Z,81.15
2023-01-21T21:07:50.547Z,80.84
2023-01-21T21:10:19.363Z,80.89
2023-01-21T21:12:43.317Z,80.98
2023-01-21T21:15:05.552Z,80.70
2023-01-21T21:17:27.229Z,80.86
2023-01-21T21:19:48.899Z,80.94
2023-01-21T21:22:11.259Z,80.91
2023-01-21T21:24:33.128Z,81.35
2023-01-21T21:26:54.877Z,80.95
2023-01-21T21:29:16.768Z,81.21
2023-01-21T21:31:38.522Z,81.37
2023-01-21T21:34:00.482Z,80.94
2023-01-21T21:36:24.586Z,80.82
2023-01-21T21:38:48.949Z,81.31
2023-01-21T21:41:37.520Z,80.82
2023-01-21T21:43:59.423Z,81.15
2023-01-21T21:46:39.584Z,81.46
2023-01-21T21:49:01.308Z,81.04
2023-01-21T21:51:23.392Z,80.80
2023-01-21T21:53:46.546Z,81.38
2023-01-21T21:56:14.588Z,81.16
2023-01-21T21:58:36.584Z,81.36
2023-01-21T22:01:23.411Z,81.39
2023-01-21T22:03:45.647Z,81.06
2023-01-21T22:06:09.330Z,80.92
2023-01-21T22:08:33.368Z,81.08
2023-01-21T22:11:00.915Z,81.16
2023-01-21T22:13:22.696Z,80.98
2023-01-21T22:15:44.686Z,81.61
2023-01-21T22:18:06.415Z,81.41
2023-01-21T22:20:31.691Z,81.34
2023-01-21T22:22:53.395Z,81.68
2023-01-21T22:25:15.114Z,80.80
2023-01-21T22:27:38.905Z,81.05
2023-01-21T22:30:01.578Z,81.44
2023-01-21T22:32:23.402Z,81.15
2023-01-21T22:34:45.179Z,81.13
2023-01-21T22:37:06.837Z,80.92
2023-01-21T22:39:28.583Z,80.96
2023-01-21T22:41:50.421Z,80.78
2023-01-21T22:44:12.070Z,81.08
2023-01-21T22:46:34.168Z,81.11
2023-01-21T22:48:56.262Z,81.05
2023-01-21T22:51:19.591Z,81.10
2023-01-21T22:53:41.638Z,81.08
2023-01-21T22:56:05.345Z,80.95
2023-01-21T22:58:29.499Z,80.82
2023-01-21T23:00:53.827Z,81.17
2023-01-21T23:03:19.052Z,81.08
2023-01-21T23:05:40.714Z,80.80
2023-01-21T23:08:02.523Z,81.11
2023-01-21T23:10:26.706Z,81.05
2023-01-21T23:12:48.471Z,80.89
2023-01-21T23:15:10.299Z,81.12
2023-01-21T23:17:31.989Z,80.94
2023-01-21T23:19:53.622Z,81.19
2023-01-21T23:22:15.317Z,81.33
2023-01-21T23:24:37.075Z,81.50
2023-01-21T23:26:58.753Z,81.45
2023-01-21T23:29:20.517Z,81.47
2023-01-21T23:31:42.284Z,81.48
2023-01-21T23:34:04.005Z,81.20
2023-01-21T23:36:25.683Z,81.20
2023-01-21T23:38:47.647Z,81.14
2023-01-21T23:41:17.148Z,80.79
2023-01-21T23:43:39.397Z,81.05
2023-01-21T23:46:01.024Z,81.13
2023-01-21T23:48:22.871Z,80.78
2023-01-21T23:50:44.616Z,80.97
2023-01-21T23:53:06.290Z,81.02
2023-01-21T23:55:27.994Z,81.23
2023-01-21T23:57:49.872Z,81.03
